Agana Heights, Guam
Current Conditions -  °F | °C
As of 4:54 AM on Thursday 27 Nov 2014 (Local Time) from PGUM Reporting Station
Clear Clear  
Wind Chill: 27°   Ceiling: Unl
Heat Index: 30°   Visibility: 10mi
Dew Point: 23°   Wind: 12mph
Humidity: 79%   Direction: 40°NE
Pressure: 29.85"   Gusts: NA
Location:  13.47°N, 144.74°E
Report Text: PGUM 261854Z 04010KT 10SM CLR 27/23 A2985 RMK AO2 SLP099 T02720233
Loading
Personal Weather Stations






























Interactive Weather Map New forecast layout! Learn more

10-Day Weather Forecast

Advertisements
Track Severe Weather on mobile